Time;durP1;ratioP1;P1;durP2;ratioP2;P2;SDS_P1;SDS_P2;PMS_P1;PMS_P2;Temp;Humidity;BMP_temperature;BMP_pressure;BME280_temperature;BME280_humidity;BME280_pressure;Samples;Min_cycle;Max_cycle;Signal;HPM_P1;HPM_P2
2023/12/30 00:01:53;;;;;;;21.95;13.03;;;;;;;6.00;85.74;100009.38;1738634;82;21481;-71
2023/12/30 00:04:22;;;;;;;21.27;13.32;;;;;;;6.00;85.61;99995.78;1707884;84;21058;-71
2023/12/30 00:06:51;;;;;;;20.57;13.22;;;;;;;6.00;85.59;100001.22;1738653;81;21097;-72
2023/12/30 00:09:19;;;;;;;25.23;16.05;;;;;;;6.00;85.32;99999.34;1691204;83;21182;-72
2023/12/30 00:11:47;;;;;;;23.57;14.95;;;;;;;6.00;85.26;100003.94;1720541;83;21063;-72
2023/12/30 00:14:16;;;;;;;25.82;16.07;;;;;;;5.99;85.23;100004.45;1690350;85;21074;-71
2023/12/30 00:16:45;;;;;;;22.10;13.90;;;;;;;5.98;85.12;100000.05;1720480;82;21170;-72
2023/12/30 00:19:14;;;;;;;23.05;14.68;;;;;;;6.00;85.13;100001.22;1694945;85;21043;-71
2023/12/30 00:21:42;;;;;;;22.05;12.98;;;;;;;6.00;85.07;99995.27;1690206;85;21078;-72
2023/12/30 00:24:11;;;;;;;24.27;14.73;;;;;;;5.99;85.02;99993.58;1720615;83;21062;-73
2023/12/30 00:26:39;;;;;;;24.85;15.18;;;;;;;6.00;84.93;99997.14;1695185;85;21051;-72
2023/12/30 00:29:16;;;;;;;22.50;13.53;;;;;;;5.97;84.86;100001.06;1690170;85;21070;-72
2023/12/30 00:31:41;;;;;;;18.95;11.05;;;;;;;5.96;84.86;100010.77;1720111;83;21039;-72
2023/12/30 00:34:10;;;;;;;19.42;11.43;;;;;;;5.94;84.80;100002.78;1690182;85;21062;-71
2023/12/30 00:36:47;;;;;;;17.75;9.70;;;;;;;5.96;84.76;100001.24;1720522;83;21086;-73
2023/12/30 00:39:13;;;;;;;18.23;11.05;;;;;;;5.94;84.74;100006.86;1694550;84;21047;-71
2023/12/30 00:41:42;;;;;;;18.07;9.98;;;;;;;5.95;84.71;100005.84;1690306;85;21079;-73
2023/12/30 00:44:10;;;;;;;17.37;9.73;;;;;;;5.95;84.72;100005.84;1720383;83;21170;-71
2023/12/30 00:46:39;;;;;;;18.65;10.63;;;;;;;5.96;84.67;100003.97;1694828;85;21055;-73
2023/12/30 00:49:08;;;;;;;17.57;10.18;;;;;;;5.95;84.63;99997.68;1664875;85;21130;-71
2023/12/30 00:51:38;;;;;;;14.30;8.98;;;;;;;5.96;84.61;100008.89;1720523;83;21082;-72
2023/12/30 00:54:06;;;;;;;17.40;9.45;;;;;;;5.96;84.68;100006.17;1690255;85;21007;-73
2023/12/30 00:56:35;;;;;;;19.98;11.80;;;;;;;5.97;84.58;100006.50;1720774;82;21051;-72
2023/12/30 00:59:04;;;;;;;20.75;11.65;;;;;;;5.97;84.48;100011.09;1690220;85;21075;-72
2023/12/30 01:01:33;;;;;;;17.77;10.23;;;;;;;5.96;84.45;100002.60;1720667;83;21097;-72
2023/12/30 01:04:01;;;;;;;18.75;9.23;;;;;;;5.96;84.38;100011.61;1690506;85;21090;-73
2023/12/30 01:06:30;;;;;;;15.63;9.60;;;;;;;5.96;84.28;100022.48;1720411;83;21197;-72
2023/12/30 01:09:00;;;;;;;21.62;12.43;;;;;;;5.94;84.25;100013.66;1698017;84;21118;-72
2023/12/30 01:11:29;;;;;;;19.82;11.45;;;;;;;5.94;84.25;100005.50;1759158;81;21013;-72
2023/12/30 01:13:58;;;;;;;19.95;11.20;;;;;;;5.95;84.31;100015.35;1727888;81;20998;-74
2023/12/30 01:16:26;;;;;;;23.80;14.55;;;;;;;5.94;84.25;100010.94;1748437;82;21046;-72
2023/12/30 01:18:55;;;;;;;28.62;17.02;;;;;;;5.94;84.17;100012.30;1759097;81;21037;-72
2023/12/30 01:21:24;;;;;;;26.75;15.05;;;;;;;5.94;84.28;100011.45;1714935;82;21089;-72
2023/12/30 01:23:53;;;;;;;18.12;10.40;;;;;;;5.94;84.25;100012.30;1759033;81;20981;-72
2023/12/30 01:26:22;;;;;;;20.80;11.33;;;;;;;5.93;84.23;100018.76;1714708;82;21022;-73
2023/12/30 01:28:50;;;;;;;21.60;13.30;;;;;;;5.93;84.19;100014.69;1719115;82;21014;-72
2023/12/30 01:31:18;;;;;;;24.15;14.18;;;;;;;5.93;84.09;100003.81;1759228;81;21069;-70
2023/12/30 01:33:49;;;;;;;16.87;9.93;;;;;;;5.93;84.06;100005.16;1748499;82;21040;-71
2023/12/30 01:36:17;;;;;;;17.27;9.65;;;;;;;5.94;84.03;100003.30;1759034;81;21013;-72
2023/12/30 01:38:46;;;;;;;14.10;7.83;;;;;;;5.95;84.07;100014.51;1748498;82;21061;-73
2023/12/30 01:41:14;;;;;;;20.40;11.45;;;;;;;5.96;84.02;100010.25;1759362;80;20997;-72
2023/12/30 01:43:43;;;;;;;27.02;14.83;;;;;;;5.95;83.93;100004.48;1748502;82;21438;-72
2023/12/30 01:46:13;;;;;;;21.80;13.15;;;;;;;5.94;83.82;99994.63;1759132;81;21023;-72
2023/12/30 01:48:42;;;;;;;18.30;10.65;;;;;;;5.92;83.81;100002.63;1748402;82;21026;-70
2023/12/30 01:51:11;;;;;;;26.30;14.93;;;;;;;5.89;83.75;99999.75;1759368;81;21029;-72
2023/12/30 01:53:43;;;;;;;28.12;16.02;;;;;;;5.87;83.75;99999.05;1745469;82;21073;-72
2023/12/30 01:56:12;;;;;;;26.17;14.85;;;;;;;5.86;83.82;100004.15;1759316;81;21013;-72
2023/12/30 01:58:40;;;;;;;21.20;12.07;;;;;;;5.86;83.87;99997.86;1728149;81;21037;-74
2023/12/30 02:01:08;;;;;;;20.37;11.05;;;;;;;5.83;83.83;99993.59;1748352;82;21042;-72
2023/12/30 02:03:37;;;;;;;16.37;9.38;;;;;;;5.83;83.81;100001.75;1759255;81;21550;-72
2023/12/30 02:06:06;;;;;;;19.82;11.60;;;;;;;5.84;83.86;100000.73;1748491;82;21423;-73
2023/12/30 02:08:34;;;;;;;25.23;14.05;;;;;;;5.84;83.89;99992.57;1759146;81;21044;-72
2023/12/30 02:11:04;;;;;;;22.95;13.28;;;;;;;5.83;83.83;99988.16;1759190;81;21029;-73
2023/12/30 02:13:33;;;;;;;22.15;12.15;;;;;;;5.83;83.86;99992.23;1748412;82;21038;-72
2023/12/30 02:16:02;;;;;;;19.80;11.50;;;;;;;5.84;83.87;99992.57;1759205;80;21430;-73
2023/12/30 02:18:31;;;;;;;24.30;14.00;;;;;;;5.82;83.90;99997.34;1748432;82;21018;-73
2023/12/30 02:20:59;;;;;;;24.82;14.90;;;;;;;5.83;83.95;100009.06;1759266;81;21065;-72
2023/12/30 02:23:28;;;;;;;22.75;13.35;;;;;;;5.85;83.91;100007.89;1748585;82;20962;-72
2023/12/30 02:25:56;;;;;;;21.75;11.40;;;;;;;5.82;83.80;100002.77;1759088;81;21037;-72
2023/12/30 02:28:24;;;;;;;19.27;10.08;;;;;;;5.80;83.81;100010.27;1748261;82;21532;-72
2023/12/30 02:30:53;;;;;;;24.80;12.90;;;;;;;5.78;83.90;100006.87;1759214;80;20985;-73
2023/12/30 02:33:21;;;;;;;24.12;13.25;;;;;;;5.79;83.91;100014.00;1748558;82;21077;-71
2023/12/30 02:35:51;;;;;;;21.12;11.30;;;;;;;5.78;83.86;100010.10;1759186;81;21032;-72
2023/12/30 02:38:19;;;;;;;18.25;9.18;;;;;;;5.76;83.84;100006.20;1748659;81;21045;-73
2023/12/30 02:40:47;;;;;;;18.60;11.08;;;;;;;5.74;83.94;100012.33;1719379;81;21520;-72
2023/12/30 02:43:16;;;;;;;19.52;10.48;;;;;;;5.74;84.04;100013.69;1759206;81;21053;-73
2023/12/30 02:45:44;;;;;;;18.48;10.48;;;;;;;5.74;84.07;100009.61;1748574;81;20958;-72
2023/12/30 02:48:13;;;;;;;26.65;14.45;;;;;;;5.74;84.04;100006.89;1759101;81;21006;-72
2023/12/30 02:50:41;;;;;;;25.23;13.50;;;;;;;5.73;84.08;100004.69;1748553;82;21065;-70
2023/12/30 02:53:10;;;;;;;19.15;11.78;;;;;;;5.74;84.04;100009.61;1724916;81;21168;-73
2023/12/30 02:55:38;;;;;;;24.52;14.47;;;;;;;5.73;84.08;100013.34;1748260;82;20995;-71
2023/12/30 02:58:06;;;;;;;23.25;13.90;;;;;;;5.72;84.04;100001.62;1759071;81;21080;-73
2023/12/30 03:00:35;;;;;;;17.20;10.05;;;;;;;5.71;84.17;100008.09;1748429;81;21072;-72
2023/12/30 03:03:04;;;;;;;20.08;10.90;;;;;;;5.70;84.20;100004.19;1759180;81;21077;-71
2023/12/30 03:05:33;;;;;;;27.77;16.70;;;;;;;5.71;84.19;100018.11;1748416;82;21453;-72
2023/12/30 03:08:02;;;;;;;34.90;20.17;;;;;;;5.69;84.18;100014.72;1758891;81;21013;-72
2023/12/30 03:10:31;;;;;;;27.10;15.55;;;;;;;5.68;84.22;100009.80;1753868;82;21494;-71
2023/12/30 03:13:00;;;;;;;24.75;15.05;;;;;;;5.70;84.31;100006.91;1702383;84;21107;-70
2023/12/30 03:15:30;;;;;;;35.35;19.00;;;;;;;5.69;84.23;100010.65;1733178;83;21097;-72
2023/12/30 03:17:58;;;;;;;31.93;16.90;;;;;;;5.67;84.22;99993.16;1702544;84;21071;-71
2023/12/30 03:20:27;;;;;;;24.65;13.75;;;;;;;5.65;84.28;100004.72;1733146;81;21054;-71
2023/12/30 03:22:56;;;;;;;21.40;12.40;;;;;;;5.63;84.42;99998.61;1702605;84;21054;-72
2023/12/30 03:25:25;;;;;;;26.07;14.35;;;;;;;5.62;84.49;100006.42;1733377;82;21102;-72
2023/12/30 03:27:54;;;;;;;29.25;18.02;;;;;;;5.64;84.51;99994.02;1702785;84;21090;-72
2023/12/30 03:30:22;;;;;;;36.17;19.77;;;;;;;5.63;84.59;99999.13;1733489;82;21014;-72
2023/12/30 03:32:51;;;;;;;26.00;14.98;;;;;;;5.62;84.59;100001.50;1702727;84;21065;-73
2023/12/30 03:35:19;;;;;;;24.98;12.95;;;;;;;5.61;84.68;99995.73;1704835;83;21069;-72
2023/12/30 03:37:48;;;;;;;32.17;17.07;;;;;;;5.58;84.68;99998.80;1702610;84;21101;-72
2023/12/30 03:40:16;;;;;;;31.27;16.45;;;;;;;5.56;84.70;99989.47;1733291;83;21101;-71
2023/12/30 03:42:45;;;;;;;24.50;13.38;;;;;;;5.57;84.77;99988.95;1702639;84;21061;-74
2023/12/30 03:45:13;;;;;;;25.00;13.93;;;;;;;5.55;84.91;99991.84;1733292;81;21022;-73
2023/12/30 03:47:42;;;;;;;26.07;14.15;;;;;;;5.56;84.96;99983.19;1702583;84;21066;-73
2023/12/30 03:50:11;;;;;;;17.10;10.30;;;;;;;5.54;85.05;99993.38;1733451;83;21081;-72
2023/12/30 03:52:40;;;;;;;13.13;7.80;;;;;;;5.56;85.06;99992.69;1702750;84;21019;-73
2023/12/30 03:55:08;;;;;;;13.00;6.97;;;;;;;5.56;85.03;99986.75;1733363;83;21096;-70
2023/12/30 03:57:37;;;;;;;13.85;7.70;;;;;;;5.57;84.99;99988.44;1675262;84;21074;-72
2023/12/30 04:00:08;;;;;;;15.70;9.10;;;;;;;5.57;85.04;99995.75;1733223;81;21045;-72
2023/12/30 04:02:42;;;;;;;26.05;16.05;;;;;;;5.54;84.97;99989.30;1702723;84;21486;-73
2023/12/30 04:05:11;;;;;;;23.77;12.75;;;;;;;5.50;85.02;99994.24;1733351;83;21064;-72
2023/12/30 04:07:40;;;;;;;19.82;9.43;;;;;;;5.51;85.17;99991.02;1702720;84;21054;-71
2023/12/30 04:10:09;;;;;;;16.87;8.03;;;;;;;5.50;85.27;99992.89;1747118;82;21222;-71
2023/12/30 04:12:38;;;;;;;14.70;9.00;;;;;;;5.51;85.25;99991.02;1751805;82;21426;-71
2023/12/30 04:15:08;;;;;;;19.05;11.48;;;;;;;5.53;85.27;99993.05;1752011;82;21164;-73
2023/12/30 04:17:37;;;;;;;18.73;9.50;;;;;;;5.53;85.21;99987.61;1752115;81;20978;-72
2023/12/30 04:20:06;;;;;;;16.77;9.43;;;;;;;5.51;85.23;99984.22;1751698;81;21414;-73
2023/12/30 04:22:35;;;;;;;17.87;10.68;;;;;;;5.49;85.34;99987.11;1751829;81;21049;-72
2023/12/30 04:25:04;;;;;;;13.05;7.45;;;;;;;5.48;85.33;99990.86;1751694;81;21164;-72
2023/12/30 04:27:32;;;;;;;17.73;8.68;;;;;;;5.51;85.47;99997.81;1751779;82;21457;-73
2023/12/30 04:30:01;;;;;;;14.87;8.68;;;;;;;5.51;85.46;99992.38;1751860;82;21033;-72
2023/12/30 04:32:30;;;;;;;14.03;8.00;;;;;;;5.50;85.35;99992.89;1751788;82;20990;-73
2023/12/30 04:34:59;;;;;;;13.55;7.35;;;;;;;5.49;85.44;99992.55;1751746;82;21054;-71
2023/12/30 04:37:28;;;;;;;15.35;7.92;;;;;;;5.49;85.37;99993.06;1751833;82;21017;-72
2023/12/30 04:39:57;;;;;;;14.18;7.45;;;;;;;5.47;85.32;99995.95;1751735;82;21049;-73
2023/12/30 04:42:25;;;;;;;12.78;7.35;;;;;;;5.48;85.44;99985.93;1751827;82;21041;-71
2023/12/30 04:44:54;;;;;;;13.50;8.10;;;;;;;5.48;85.54;99992.72;1751879;81;21022;-71
2023/12/30 04:47:23;;;;;;;15.93;7.67;;;;;;;5.49;85.55;99993.06;1751669;82;21006;-72
2023/12/30 04:49:51;;;;;;;15.38;7.87;;;;;;;5.49;85.56;99988.98;1751694;81;20958;-74
2023/12/30 04:52:20;;;;;;;12.73;7.30;;;;;;;5.48;85.54;99990.01;1751658;81;21438;-72
2023/12/30 04:54:48;;;;;;;13.68;7.80;;;;;;;5.48;85.51;99988.14;1751592;81;21055;-70
2023/12/30 04:57:18;;;;;;;15.00;9.05;;;;;;;5.48;85.50;99985.42;1751690;82;21018;-71
2023/12/30 04:59:47;;;;;;;14.03;8.70;;;;;;;5.48;85.53;99999.00;1751646;82;21037;-73
2023/12/30 05:02:15;;;;;;;16.12;8.80;;;;;;;5.49;85.54;99995.78;1751552;82;21033;-71
2023/12/30 05:04:44;;;;;;;12.23;7.65;;;;;;;5.48;85.49;99996.29;1751562;81;20966;-72
2023/12/30 05:07:13;;;;;;;12.15;7.78;;;;;;;5.47;85.39;99997.82;1751620;82;21016;-71
2023/12/30 05:09:41;;;;;;;14.78;8.25;;;;;;;5.47;85.42;99989.67;1740908;81;21086;-70
2023/12/30 05:12:09;;;;;;;15.10;8.53;;;;;;;5.47;85.49;99986.44;1694875;85;21568;-72
2023/12/30 05:14:38;;;;;;;15.90;7.92;;;;;;;5.48;85.42;99991.37;1725335;83;21081;-72
2023/12/30 05:17:06;;;;;;;12.28;7.62;;;;;;;5.49;85.38;99975.40;1695049;85;21090;-71
2023/12/30 05:19:35;;;;;;;15.03;7.80;;;;;;;5.48;85.36;99982.70;1725516;83;21050;-73
2023/12/30 05:22:04;;;;;;;13.05;7.78;;;;;;;5.49;85.34;99978.11;1694905;85;21102;-72
2023/12/30 05:24:33;;;;;;;13.03;7.50;;;;;;;5.47;85.38;99975.58;1725461;83;21014;-73
2023/12/30 05:27:02;;;;;;;11.78;7.28;;;;;;;5.46;85.30;99971.16;1756457;82;21057;-72
2023/12/30 05:29:30;;;;;;;13.65;7.28;;;;;;;5.45;85.28;99970.83;1756466;82;21033;-72
2023/12/30 05:31:58;;;;;;;13.20;6.92;;;;;;;5.46;85.22;99978.47;1756549;81;21068;-73
2023/12/30 05:34:27;;;;;;;11.70;7.10;;;;;;;5.44;85.20;99980.51;1756412;81;21133;-73
2023/12/30 05:36:55;;;;;;;13.03;7.37;;;;;;;5.42;85.16;99980.69;1756440;81;21458;-72
2023/12/30 05:39:24;;;;;;;13.32;7.00;;;;;;;5.39;85.22;99982.39;1756523;82;21018;-72
2023/12/30 05:41:52;;;;;;;12.60;7.30;;;;;;;5.36;85.27;99979.52;1756580;82;20997;-71
2023/12/30 05:44:21;;;;;;;11.90;7.50;;;;;;;5.35;85.39;99988.69;1756509;82;21060;-73
2023/12/30 05:46:51;;;;;;;13.55;7.78;;;;;;;5.35;85.51;99987.33;1756578;81;21026;-72
2023/12/30 05:49:19;;;;;;;12.25;7.12;;;;;;;5.34;85.58;99987.50;1729802;82;21480;-73
2023/12/30 05:51:50;;;;;;;13.18;7.75;;;;;;;5.33;85.71;99991.24;1756425;82;21065;-73
2023/12/30 05:54:18;;;;;;;13.05;7.78;;;;;;;5.34;85.77;99988.35;1756528;81;21053;-72
2023/12/30 05:56:47;;;;;;;16.37;8.55;;;;;;;5.36;85.76;99988.17;1756398;81;20994;-72
2023/12/30 05:59:15;;;;;;;18.25;9.35;;;;;;;5.38;85.83;99986.13;1756618;82;20998;-72
2023/12/30 06:01:45;;;;;;;18.48;11.33;;;;;;;5.40;85.81;99986.80;1756436;82;21009;-72
2023/12/30 06:04:15;;;;;;;19.00;10.55;;;;;;;5.40;85.71;99993.09;1756402;81;21033;-72
2023/12/30 06:06:44;;;;;;;17.98;10.48;;;;;;;5.41;85.71;99996.14;1729348;82;21057;-72
2023/12/30 06:09:12;;;;;;;14.13;8.73;;;;;;;5.44;85.67;99994.09;1756479;81;21041;-73
2023/12/30 06:11:40;;;;;;;18.07;8.60;;;;;;;5.46;85.64;99998.33;1759573;81;21037;-72
2023/12/30 06:14:09;;;;;;;13.90;8.73;;;;;;;5.48;85.66;99994.08;1759555;81;21098;-73
2023/12/30 06:16:39;;;;;;;13.38;7.95;;;;;;;5.51;85.59;100007.32;1759734;81;21433;-72
2023/12/30 06:19:07;;;;;;;14.13;8.20;;;;;;;5.51;85.52;100011.39;1706179;84;21466;-73
2023/12/30 06:21:36;;;;;;;13.58;8.73;;;;;;;5.50;85.60;100005.63;1738641;81;21374;-73
2023/12/30 06:24:05;;;;;;;14.78;8.23;;;;;;;5.49;85.62;100002.57;1697877;84;21093;-72
2023/12/30 06:26:39;;;;;;;12.73;8.25;;;;;;;5.52;85.49;100009.02;1738736;82;21018;-72
2023/12/30 06:29:08;;;;;;;12.45;7.65;;;;;;;5.53;85.46;100012.06;1707754;84;21100;-72
2023/12/30 06:31:41;;;;;;;13.75;7.65;;;;;;;5.54;85.43;100010.53;1738557;81;21062;-71
2023/12/30 06:34:10;;;;;;;13.83;7.33;;;;;;;5.55;85.50;100012.23;1707553;84;21101;-73
2023/12/30 06:36:39;;;;;;;13.30;7.60;;;;;;;5.57;85.45;100006.11;1738559;82;21088;-72
2023/12/30 06:39:09;;;;;;;15.72;8.40;;;;;;;5.55;85.37;100019.53;1707604;83;21077;-73
2023/12/30 06:41:37;;;;;;;14.60;8.20;;;;;;;5.55;85.39;100016.81;1738870;82;21057;-73
2023/12/30 06:44:06;;;;;;;16.57;8.10;;;;;;;5.54;85.48;100012.41;1707592;84;21486;-71
2023/12/30 06:46:35;;;;;;;13.98;7.85;;;;;;;5.54;85.45;100009.17;1738752;81;21525;-74
2023/12/30 06:49:04;;;;;;;13.93;7.65;;;;;;;5.55;85.41;100015.45;1707901;83;21074;-72
2023/12/30 06:51:32;;;;;;;14.18;7.53;;;;;;;5.55;85.41;100021.73;1738861;82;21041;-74
2023/12/30 06:54:01;;;;;;;14.55;8.00;;;;;;;5.54;85.40;100020.55;1707802;84;21026;-72
2023/12/30 06:56:29;;;;;;;14.63;8.08;;;;;;;5.56;85.43;100021.23;1738440;82;21081;-73
2023/12/30 06:58:58;;;;;;;14.87;8.28;;;;;;;5.57;85.49;100020.20;1707580;84;21508;-73
2023/12/30 07:01:26;;;;;;;14.38;8.08;;;;;;;5.60;85.50;100011.70;1711678;82;21120;-74
2023/12/30 07:03:55;;;;;;;14.03;7.90;;;;;;;5.62;85.54;100017.81;1707593;84;21498;-73
2023/12/30 07:06:24;;;;;;;14.55;8.05;;;;;;;5.64;85.56;100019.33;1738673;81;21038;-72
2023/12/30 07:08:52;;;;;;;12.25;8.00;;;;;;;5.66;85.50;100017.80;1707641;84;21462;-72
2023/12/30 07:11:21;;;;;;;14.58;8.45;;;;;;;5.68;85.57;100014.39;1696722;82;21490;-73
2023/12/30 07:13:49;;;;;;;14.13;8.95;;;;;;;5.70;85.47;100015.06;1682846;84;21524;-73
2023/12/30 07:16:18;;;;;;;13.53;8.10;;;;;;;5.70;85.42;100015.91;1689853;85;21051;-72
2023/12/30 07:18:49;;;;;;;14.30;8.50;;;;;;;5.71;85.47;100014.89;1719861;83;21105;-72
2023/12/30 07:21:18;;;;;;;15.90;9.05;;;;;;;5.73;85.47;100009.27;1668745;86;21135;-71
2023/12/30 07:23:48;;;;;;;14.13;8.73;;;;;;;5.77;85.46;100012.48;1638042;86;21078;-74
2023/12/30 07:26:16;;;;;;;15.35;9.03;;;;;;;5.80;85.48;100020.29;1691005;84;21122;-72
2023/12/30 07:28:45;;;;;;;12.37;7.87;;;;;;;5.83;85.51;100024.02;1661829;86;21511;-72
2023/12/30 07:31:15;;;;;;;13.98;8.70;;;;;;;5.89;85.47;100025.58;1691278;85;21058;-71
2023/12/30 07:33:44;;;;;;;16.93;9.45;;;;;;;5.91;85.44;100022.69;1668791;86;21054;-72
2023/12/30 07:36:14;;;;;;;17.17;10.30;;;;;;;5.94;85.44;100025.05;1668753;86;21082;-72
2023/12/30 07:38:43;;;;;;;19.12;11.48;;;;;;;5.97;85.35;100020.10;1662039;86;21070;-71
2023/12/30 07:41:14;;;;;;;18.30;9.85;;;;;;;5.99;85.16;100021.28;1691352;84;21178;-72
2023/12/30 07:43:42;;;;;;;18.55;9.60;;;;;;;6.01;85.01;100019.23;1661927;86;21058;-71
2023/12/30 07:46:11;;;;;;;17.52;9.55;;;;;;;6.00;84.92;100018.90;1660041;85;21054;-73
2023/12/30 07:48:39;;;;;;;20.32;9.43;;;;;;;6.01;84.83;100024.16;1661947;86;21106;-72
2023/12/30 07:51:08;;;;;;;18.23;9.23;;;;;;;6.02;84.79;100025.86;1691108;84;21086;-73
2023/12/30 07:53:36;;;;;;;17.67;9.90;;;;;;;6.07;84.81;100021.75;1668587;85;21125;-71
2023/12/30 07:56:05;;;;;;;17.95;10.05;;;;;;;6.13;84.75;100024.61;1691028;83;21107;-73
2023/12/30 07:58:35;;;;;;;17.23;10.28;;;;;;;6.23;84.74;100023.02;1691151;84;21200;-72
2023/12/30 08:01:04;;;;;;;18.98;10.25;;;;;;;6.31;84.52;100026.54;1691062;84;21117;-73
2023/12/30 08:03:33;;;;;;;17.45;9.75;;;;;;;6.36;84.24;100026.00;1659920;85;21102;-73
2023/12/30 08:06:01;;;;;;;17.42;10.90;;;;;;;6.38;84.09;100026.67;1690948;84;21118;-73
2023/12/30 08:08:31;;;;;;;18.37;10.98;;;;;;;6.45;84.04;100019.99;1660379;85;21106;-72
2023/12/30 08:10:59;;;;;;;21.65;11.40;;;;;;;6.50;83.80;100031.18;1691365;83;21134;-71
2023/12/30 08:13:28;;;;;;;19.27;10.10;;;;;;;6.57;83.73;100024.87;1691779;85;21067;-72
2023/12/30 08:15:57;;;;;;;28.45;14.75;;;;;;;6.64;83.49;100021.75;1691678;85;21026;-73
2023/12/30 08:18:25;;;;;;;46.15;22.20;;;;;;;6.71;83.35;100027.83;1691598;83;21054;-73
2023/12/30 08:20:54;;;;;;;38.55;17.45;;;;;;;6.75;83.02;100031.37;1692008;84;21110;-73
2023/12/30 08:23:23;;;;;;;33.20;15.72;;;;;;;6.77;82.89;100023.86;1666640;85;21169;-74
2023/12/30 08:25:51;;;;;;;26.20;12.82;;;;;;;6.78;82.75;100023.34;1691701;84;21185;-74
2023/12/30 08:28:20;;;;;;;19.10;10.48;;;;;;;6.81;82.64;100022.98;1666334;85;21570;-74
2023/12/30 08:30:51;;;;;;;17.32;9.78;;;;;;;6.83;82.57;100015.48;1666583;85;21115;-73
2023/12/30 08:33:20;;;;;;;16.20;8.50;;;;;;;6.85;82.39;100012.05;1691857;85;21090;-72
2023/12/30 08:35:49;;;;;;;21.62;9.83;;;;;;;6.87;82.42;100001.83;1666450;85;21082;-72
2023/12/30 08:38:17;;;;;;;16.77;8.53;;;;;;;6.93;82.50;99998.37;1691651;84;21050;-73
2023/12/30 08:40:46;;;;;;;20.05;9.63;;;;;;;7.00;82.48;99995.23;1691751;85;21026;-72
2023/12/30 08:43:15;;;;;;;15.88;8.58;;;;;;;7.08;82.46;99990.23;1691866;84;21054;-74
2023/12/30 08:45:44;;;;;;;14.28;8.30;;;;;;;7.17;82.20;99986.42;1660533;85;21066;-74
2023/12/30 08:48:12;;;;;;;15.95;9.23;;;;;;;7.22;81.96;99986.20;1691541;85;21119;-73
2023/12/30 08:50:41;;;;;;;18.17;9.15;;;;;;;7.29;81.74;99979.48;1691579;84;21113;-73
2023/12/30 08:53:09;;;;;;;15.32;9.08;;;;;;;7.34;81.45;99981.64;1691623;84;21098;-74
2023/12/30 08:55:38;;;;;;;17.25;9.38;;;;;;;7.40;81.37;99979.53;1691645;85;21528;-74
2023/12/30 08:58:06;;;;;;;21.35;9.23;;;;;;;7.46;81.19;99981.50;1685167;83;21547;-74
2023/12/30 09:00:35;;;;;;;20.48;11.00;;;;;;;7.49;81.11;99973.80;1712880;83;21066;-76
2023/12/30 09:03:03;;;;;;;18.62;10.55;;;;;;;7.56;81.04;99977.46;1685545;84;21067;-74
2023/12/30 09:05:32;;;;;;;17.80;9.73;;;;;;;7.63;80.86;99973.46;1674539;86;21510;-76
2023/12/30 09:08:04;;;;;;;17.70;9.33;;;;;;;7.69;80.67;99967.77;1647305;86;21522;-74
2023/12/30 09:10:32;;;;;;;17.17;9.45;;;;;;;7.77;80.96;99971.23;1672491;84;21763;-76
2023/12/30 09:13:00;;;;;;;14.98;9.23;;;;;;;7.85;80.70;99967.08;1679025;84;21548;-75
2023/12/30 09:15:29;;;;;;;15.25;9.28;;;;;;;7.89;80.15;99947.92;1681227;85;21072;-75
2023/12/30 09:17:58;;;;;;;14.93;8.85;;;;;;;7.94;80.05;99955.02;1706609;84;21045;-73
2023/12/30 09:20:30;;;;;;;14.98;8.30;;;;;;;8.03;80.15;99954.90;1706504;83;21840;-73
2023/12/30 09:23:01;;;;;;;14.68;8.80;;;;;;;8.08;79.75;99936.91;1706346;83;21429;-76
2023/12/30 09:25:30;;;;;;;17.73;7.85;;;;;;;8.15;79.03;99942.44;1706718;83;21081;-75
2023/12/30 09:28:00;;;;;;;14.40;7.95;;;;;;;8.19;78.90;99942.38;1680970;84;21501;-74
2023/12/30 09:30:30;;;;;;;17.00;9.28;;;;;;;8.25;78.68;99938.88;1706673;84;21076;-74
2023/12/30 09:32:59;;;;;;;15.95;8.45;;;;;;;8.32;78.54;99939.79;1736771;82;21487;-76
2023/12/30 09:35:28;;;;;;;14.90;8.03;;;;;;;8.39;78.07;99936.64;1751267;82;21000;-71
2023/12/30 09:37:57;;;;;;;12.33;7.28;;;;;;;8.46;77.92;99936.21;1751527;81;21080;-72
2023/12/30 09:40:27;;;;;;;17.35;8.03;;;;;;;8.51;77.65;99935.11;1751737;82;20992;-71
2023/12/30 09:42:56;;;;;;;16.35;8.30;;;;;;;8.56;77.32;99931.27;1751686;81;21100;-71
2023/12/30 09:45:24;;;;;;;14.15;9.43;;;;;;;8.61;77.27;99929.83;1751482;82;21016;-71
2023/12/30 09:47:53;;;;;;;15.88;8.95;;;;;;;8.67;76.80;99933.14;1733864;82;21121;-71
2023/12/30 09:50:21;;;;;;;17.90;8.28;;;;;;;8.68;76.72;99922.02;1751270;81;21080;-72
2023/12/30 09:52:50;;;;;;;12.65;7.30;;;;;;;8.72;76.34;99915.64;1751484;82;21080;-71
2023/12/30 09:55:18;;;;;;;19.70;7.97;;;;;;;8.73;76.00;99909.14;1751580;82;21107;-70
2023/12/30 09:57:47;;;;;;;11.33;6.92;;;;;;;8.75;75.77;99913.88;1751533;82;21072;-71
2023/12/30 10:00:17;;;;;;;16.07;7.00;;;;;;;8.77;75.62;99904.45;1751231;82;21052;-70
2023/12/30 10:02:45;;;;;;;18.92;7.55;;;;;;;8.81;75.37;99908.99;1751292;82;21087;-70
2023/12/30 10:05:15;;;;;;;17.70;8.75;;;;;;;8.85;75.12;99909.77;1751350;82;21088;-72
2023/12/30 10:07:47;;;;;;;18.00;8.43;;;;;;;8.90;75.08;99910.01;1675175;84;21179;-72
2023/12/30 10:10:18;;;;;;;12.82;7.28;;;;;;;8.94;75.12;99910.45;1671002;86;21010;-71
2023/12/30 10:12:47;;;;;;;12.80;8.00;;;;;;;8.98;74.92;99904.91;1675253;85;21029;-73
2023/12/30 10:15:16;;;;;;;13.90;9.00;;;;;;;9.02;74.66;99907.56;1746102;81;21057;-72
2023/12/30 10:17:44;;;;;;;22.10;10.25;;;;;;;9.05;74.44;99911.27;1762375;81;21525;-72
2023/12/30 10:20:17;;;;;;;14.90;8.63;;;;;;;9.12;74.52;99908.09;1762067;81;20994;-72
2023/12/30 10:22:44;;;;;;;13.58;7.25;;;;;;;9.19;73.91;99908.97;1762317;81;21085;-71
2023/12/30 10:25:13;;;;;;;10.03;6.28;;;;;;;9.27;73.48;99896.19;1762571;81;21018;-71
2023/12/30 10:27:42;;;;;;;12.37;7.42;;;;;;;9.34;72.71;99902.02;1762292;81;21240;-70
2023/12/30 10:30:14;;;;;;;10.55;6.33;;;;;;;9.44;74.81;99905.75;1762388;81;21026;-72
2023/12/30 10:32:43;;;;;;;12.55;7.05;;;;;;;9.51;73.33;99902.52;1735325;81;21010;-71
2023/12/30 10:35:12;;;;;;;17.37;7.10;;;;;;;9.53;72.46;99895.80;1762201;81;21002;-69
2023/12/30 10:37:42;;;;;;;14.07;7.85;;;;;;;9.53;72.29;99893.59;1762554;81;21070;-69
2023/12/30 10:40:12;;;;;;;11.25;6.92;;;;;;;9.55;72.40;99888.76;1762130;81;21126;-72
2023/12/30 10:42:41;;;;;;;16.05;7.08;;;;;;;9.58;72.30;99884.77;1762493;81;21066;-71
2023/12/30 10:45:09;;;;;;;11.25;7.12;;;;;;;9.59;72.11;99874.99;1762214;81;21073;-71
2023/12/30 10:47:41;;;;;;;12.15;7.58;;;;;;;9.60;71.65;99880.79;1762393;81;21536;-70
2023/12/30 10:50:10;;;;;;;16.67;8.25;;;;;;;9.59;71.57;99876.36;1762255;81;21026;-71
2023/12/30 10:53:01;;;;;;;12.10;7.75;;;;;;;9.58;71.58;99876.05;1762181;81;21030;-70
2023/12/30 10:55:32;;;;;;;17.45;7.72;;;;;;;9.58;71.63;99876.56;1762577;81;21070;-70
2023/12/30 10:58:13;;;;;;;15.70;7.42;;;;;;;9.54;71.17;99895.28;1762189;81;21081;-70
2023/12/30 11:00:43;;;;;;;18.70;7.35;;;;;;;9.52;70.84;99891.38;1762268;81;21057;-71
2023/12/30 11:03:11;;;;;;;12.55;6.08;;;;;;;9.50;70.71;99885.79;1762332;81;21106;-71
2023/12/30 11:06:03;;;;;;;13.13;6.47;;;;;;;9.50;70.70;99887.16;1762889;81;21034;-71
2023/12/30 11:08:32;;;;;;;15.45;6.58;;;;;;;9.50;70.21;99883.06;1733968;83;21093;-70
2023/12/30 11:11:03;;;;;;;20.45;6.97;;;;;;;9.43;70.06;99878.92;1751256;82;21024;-71
2023/12/30 11:13:36;;;;;;;15.30;6.67;;;;;;;9.40;70.18;99875.75;1721384;83;21078;-70
2023/12/30 11:16:18;;;;;;;15.85;7.20;;;;;;;9.36;70.14;99873.95;1700086;84;21464;-70
2023/12/30 11:19:03;;;;;;;11.45;6.00;;;;;;;9.35;70.62;99861.84;1700375;84;21057;-70
2023/12/30 11:21:46;;;;;;;12.30;6.17;;;;;;;9.34;70.46;99852.80;1699986;84;21480;-70
2023/12/30 11:24:15;;;;;;;16.12;6.72;;;;;;;9.31;70.27;99852.37;1700102;84;21070;-69
2023/12/30 11:26:44;;;;;;;26.05;7.67;;;;;;;9.30;70.43;99846.58;1700090;84;21049;-70
2023/12/30 11:29:18;;;;;;;19.73;7.75;;;;;;;9.30;70.36;99844.69;1677077;84;21177;-70
2023/12/30 11:31:50;;;;;;;27.50;7.45;;;;;;;9.28;70.37;99844.05;1700078;84;21080;-70
2023/12/30 11:34:19;;;;;;;53.73;8.48;;;;;;;9.27;70.52;99846.98;1700088;84;21558;-70
2023/12/30 11:36:51;;;;;;;11.73;6.72;;;;;;;9.26;70.78;99850.77;1700139;84;21069;-71